Time;durP1;ratioP1;P1;durP2;ratioP2;P2;SDS_P1;SDS_P2;PMS_P1;PMS_P2;Temp;Humidity;BMP_temperature;BMP_pressure;BME280_temperature;BME280_humidity;BME280_pressure;Samples;Min_cycle;Max_cycle;Signal;HPM_P1;HPM_P2
2023/10/06 00:01:43;;;;;;;14.10;2.75;;;11.30;99.90;;;;;;5074905;28;19931;-64
2023/10/06 00:04:19;;;;;;;13.18;3.30;;;11.30;99.90;;;;;;5080245;28;20032;-63
2023/10/06 00:06:48;;;;;;;15.13;3.50;;;11.20;99.90;;;;;;5063561;28;20076;-63
2023/10/06 00:09:25;;;;;;;12.18;3.83;;;11.20;99.90;;;;;;5084994;28;20051;-64
2023/10/06 00:11:52;;;;;;;13.93;3.55;;;11.30;99.90;;;;;;5088555;28;20094;-65
2023/10/06 00:14:39;;;;;;;10.93;3.20;;;11.20;99.90;;;;;;5080520;28;20047;-63
2023/10/06 00:17:17;;;;;;;7.35;2.63;;;11.20;99.90;;;;;;5079927;28;20084;-64
2023/10/06 00:19:44;;;;;;;11.05;3.13;;;11.20;99.90;;;;;;5069288;28;20052;-63
2023/10/06 00:24:47;;;;;;;7.72;3.22;;;11.10;99.90;;;;;;5068284;28;20045;-65
2023/10/06 00:27:13;;;;;;;12.50;3.47;;;11.20;99.90;;;;;;5065373;28;20044;-63
2023/10/06 00:29:49;;;;;;;10.18;3.13;;;11.10;99.90;;;;;;5068650;28;20044;-64
2023/10/06 00:32:21;;;;;;;12.33;3.20;;;11.10;99.90;;;;;;5068305;28;20094;-64
2023/10/06 00:34:52;;;;;;;7.95;2.95;;;11.10;99.90;;;;;;5067909;28;20693;-65
2023/10/06 00:37:24;;;;;;;12.35;3.00;;;11.00;99.90;;;;;;5064721;28;20080;-64
2023/10/06 00:39:54;;;;;;;8.30;3.10;;;11.00;99.90;;;;;;5066724;28;20128;-64
2023/10/06 00:42:21;;;;;;;12.43;3.75;;;11.00;99.90;;;;;;5067715;28;20045;-64
2023/10/06 00:44:47;;;;;;;10.23;3.00;;;11.00;99.90;;;;;;5070228;28;20040;-64
2023/10/06 00:47:13;;;;;;;;;;;11.10;99.90;;;;;;5068764;28;20094;-65
2023/10/06 00:49:39;;;;;;;12.63;3.10;;;11.00;99.90;;;;;;5068247;28;20028;-65
2023/10/06 00:52:07;;;;;;;8.95;2.83;;;11.00;99.90;;;;;;5069757;28;21385;-64
2023/10/06 00:54:34;;;;;;;16.05;3.13;;;11.00;99.90;;;;;;5067848;28;20048;-64
2023/10/06 00:57:08;;;;;;;10.02;2.80;;;10.90;99.90;;;;;;5069077;28;20048;-65
2023/10/06 00:59:37;;;;;;;10.43;2.88;;;11.00;99.90;;;;;;5067608;28;20049;-64
2023/10/06 01:02:09;;;;;;;16.35;3.70;;;11.00;99.90;;;;;;5053834;28;20112;-64
2023/10/06 01:04:45;;;;;;;10.85;3.50;;;10.90;99.90;;;;;;5071919;28;20690;-64
2023/10/06 01:07:16;;;;;;;11.63;3.30;;;11.00;99.90;;;;;;5068761;28;20055;-64
2023/10/06 01:10:07;;;;;;;8.65;3.30;;;10.90;99.90;;;;;;5071009;28;20122;-66
2023/10/06 01:12:33;;;;;;;11.35;3.40;;;11.00;99.90;;;;;;5068890;28;20037;-64
2023/10/06 01:17:58;;;;;;;7.53;3.20;;;11.00;99.90;;;;;;5024579;28;19916;-63
2023/10/06 01:20:41;;;;;;;8.07;2.83;;;10.90;99.90;;;;;;5073397;28;20088;-64
2023/10/06 01:23:17;;;;;;;9.63;2.72;;;10.90;99.90;;;;;;5065487;28;20511;-64
2023/10/06 01:25:43;;;;;;;;;;;10.90;99.90;;;;;;5051271;28;20463;-65
2023/10/06 01:28:12;;;;;;;10.68;3.10;;;10.90;99.90;;;;;;5068708;28;20396;-64
2023/10/06 01:30:38;;;;;;;10.50;3.00;;;10.90;99.90;;;;;;5071900;28;20525;-64
2023/10/06 01:33:05;;;;;;;;;;;10.90;99.90;;;;;;5065857;28;20039;-63
2023/10/06 01:35:33;;;;;;;10.75;3.10;;;10.90;99.90;;;;;;5069676;28;19928;-64
2023/10/06 01:38:00;;;;;;;11.32;3.17;;;10.90;99.90;;;;;;5066209;28;20036;-64
2023/10/06 01:42:52;;;;;;;10.15;3.80;;;10.80;99.90;;;;;;5066132;28;20074;-63
2023/10/06 01:45:21;;;;;;;;;;;10.80;99.90;;;;;;5068435;28;20036;-62
2023/10/06 01:47:54;;;;;;;16.23;3.97;;;10.70;99.90;;;;;;5069387;28;20606;-63
2023/10/06 01:50:20;;;;;;;9.63;3.67;;;10.60;99.90;;;;;;5066979;28;20044;-63
2023/10/06 01:52:46;;;;;;;;;;;10.60;99.90;;;;;;5065504;28;20093;-63
2023/10/06 01:55:12;;;;;;;11.15;2.80;;;10.70;99.90;;;;;;5067746;28;19921;-63
2023/10/06 01:57:39;;;;;;;6.50;2.65;;;10.60;99.90;;;;;;5067551;28;20041;-64
2023/10/06 02:00:14;;;;;;;11.27;2.47;;;10.70;99.90;;;;;;5068165;28;20044;-62
2023/10/06 02:02:42;;;;;;;11.05;2.63;;;10.70;99.90;;;;;;5065337;28;20593;-63
2023/10/06 02:05:12;;;;;;;8.55;2.70;;;10.60;99.90;;;;;;5067874;28;20040;-63
2023/10/06 02:07:44;;;;;;;9.60;2.90;;;10.60;99.90;;;;;;5065782;28;20049;-63
2023/10/06 02:10:13;;;;;;;9.25;3.25;;;10.60;99.90;;;;;;5065169;28;20119;-63
2023/10/06 02:12:39;;;;;;;16.33;3.63;;;10.50;99.90;;;;;;5065332;28;20116;-63
2023/10/06 02:15:10;;;;;;;;;;;10.50;99.90;;;;;;5066363;28;20123;-63
2023/10/06 02:17:40;;;;;;;9.48;3.20;;;10.50;99.90;;;;;;5063570;28;19917;-63
2023/10/06 02:20:41;;;;;;;24.65;3.55;;;10.50;99.90;;;;;;5067589;28;20098;-65
2023/10/06 02:22:58;;;;;;;16.05;3.20;;;10.40;99.90;;;;;;5062232;28;20072;-63
2023/10/06 02:25:25;;;;;;;;;;;10.40;99.90;;;;;;5048011;28;20071;-64
2023/10/06 02:27:54;;;;;;;10.85;2.40;;;10.40;99.90;;;;;;5065389;28;19951;-63
2023/10/06 02:30:41;;;;;;;10.48;2.72;;;10.40;99.90;;;;;;5066501;28;20051;-64
2023/10/06 02:33:07;;;;;;;18.45;3.40;;;10.40;99.90;;;;;;5077168;28;20046;-63
2023/10/06 02:35:35;;;;;;;12.25;3.17;;;10.40;99.90;;;;;;5080756;28;20044;-65
2023/10/06 02:38:05;;;;;;;11.02;3.20;;;10.40;99.90;;;;;;5080629;28;20503;-65
2023/10/06 02:40:43;;;;;;;9.85;2.78;;;10.40;99.90;;;;;;5079801;28;20040;-64
2023/10/06 02:43:11;;;;;;;11.05;3.03;;;10.40;99.90;;;;;;5081413;28;20424;-64
2023/10/06 02:45:43;;;;;;;10.63;4.05;;;10.40;99.90;;;;;;5083667;28;20440;-65
2023/10/06 02:48:17;;;;;;;14.45;2.92;;;10.30;99.90;;;;;;5076162;28;20112;-64
2023/10/06 02:50:44;;;;;;;7.63;2.60;;;10.30;99.90;;;;;;5084621;28;20040;-64
2023/10/06 02:53:13;;;;;;;14.02;3.15;;;10.40;99.90;;;;;;5078071;28;20116;-64
2023/10/06 02:55:43;;;;;;;12.85;3.03;;;10.40;99.90;;;;;;5076216;28;20036;-64
2023/10/06 02:58:23;;;;;;;24.65;3.35;;;10.30;99.90;;;;;;5077716;28;20060;-64
2023/10/06 03:00:52;;;;;;;10.35;2.95;;;10.40;99.90;;;;;;5081721;28;20055;-64
2023/10/06 03:03:21;;;;;;;11.15;2.80;;;10.30;99.90;;;;;;5077977;28;20044;-63
2023/10/06 03:05:51;;;;;;;14.25;3.38;;;10.40;99.90;;;;;;5084714;28;20044;-64
2023/10/06 03:08:20;;;;;;;12.27;3.83;;;10.30;99.90;;;;;;5081266;28;20047;-63
2023/10/06 03:10:48;;;;;;;18.70;3.58;;;10.30;99.90;;;;;;5083366;28;20032;-64
2023/10/06 03:13:31;;;;;;;5.57;2.40;;;10.30;99.90;;;;;;5080491;28;20490;-64
2023/10/06 03:15:57;;;;;;;9.10;4.03;;;10.30;99.90;;;;;;5081976;28;20488;-64
2023/10/06 03:18:23;;;;;;;;;;;10.20;99.90;;;;;;5083107;28;20042;-64
2023/10/06 03:20:53;;;;;;;13.15;4.15;;;10.20;99.90;;;;;;5079132;28;20452;-65
2023/10/06 03:26:04;;;;;;;7.13;2.95;;;10.20;99.90;;;;;;5083796;28;20028;-65
2023/10/06 03:28:36;;;;;;;12.05;3.85;;;10.20;99.90;;;;;;5079143;28;20044;-65
2023/10/06 03:31:21;;;;;;;13.15;4.47;;;10.20;99.90;;;;;;5081611;28;20044;-65
2023/10/06 03:33:54;;;;;;;23.33;4.82;;;10.30;99.90;;;;;;5081453;28;20123;-64
2023/10/06 03:36:45;;;;;;;8.68;3.75;;;10.20;99.90;;;;;;5086826;28;20120;-64
2023/10/06 03:39:11;;;;;;;16.80;4.00;;;10.20;99.90;;;;;;5077863;28;20036;-64
2023/10/06 03:41:37;;;;;;;;;;;10.30;99.90;;;;;;5084065;28;20488;-63
2023/10/06 03:44:04;;;;;;;15.18;3.40;;;10.30;99.90;;;;;;5083837;28;19916;-63
2023/10/06 03:46:39;;;;;;;14.65;4.70;;;10.30;99.90;;;;;;5084962;28;20078;-64
2023/10/06 03:49:05;;;;;;;19.58;4.25;;;10.20;99.90;;;;;;5079214;28;20040;-64
2023/10/06 03:51:37;;;;;;;;;;;10.20;99.90;;;;;;5083142;28;20411;-64
2023/10/06 03:54:04;;;;;;;11.27;3.33;;;10.30;99.90;;;;;;5083031;28;19920;-64
2023/10/06 03:56:30;;;;;;;13.50;4.43;;;10.30;99.90;;;;;;5089233;28;20040;-65
2023/10/06 03:58:56;;;;;;;8.35;3.42;;;10.30;99.90;;;;;;5081198;28;20130;-64
2023/10/06 04:01:27;;;;;;;;;;;10.30;99.90;;;;;;5089779;28;20555;-64
2023/10/06 04:03:53;;;;;;;14.48;4.55;;;10.30;99.90;;;;;;5082790;28;19926;-64
2023/10/06 04:06:23;;;;;;;6.20;3.20;;;10.30;99.90;;;;;;5090015;28;20131;-64
2023/10/06 04:08:49;;;;;;;8.02;2.90;;;10.30;99.90;;;;;;5079490;28;20040;-64
2023/10/06 04:11:15;;;;;;;7.93;3.25;;;10.40;99.90;;;;;;5087437;28;20495;-64
2023/10/06 04:13:41;;;;;;;;;;;10.40;99.90;;;;;;5072300;28;20036;-64
2023/10/06 04:16:07;;;;;;;9.77;3.47;;;10.40;99.90;;;;;;5085235;28;19976;-63
2023/10/06 04:18:32;;;;;;;;;;;10.30;99.90;;;;;;5082163;28;20085;-63
2023/10/06 04:20:58;;;;;;;17.23;3.72;;;10.40;99.90;;;;;;5084792;28;19916;-65
2023/10/06 04:23:24;;;;;;;12.70;3.53;;;10.40;99.90;;;;;;5080317;28;20507;-64
2023/10/06 04:25:55;;;;;;;9.35;2.78;;;10.40;99.90;;;;;;5090230;28;20039;-64
2023/10/06 04:28:22;;;;;;;13.48;3.95;;;10.40;99.90;;;;;;5081840;28;20059;-65
2023/10/06 04:30:49;;;;;;;12.68;3.70;;;10.40;99.90;;;;;;5073531;28;20051;-64
2023/10/06 04:33:18;;;;;;;9.27;3.08;;;10.50;99.90;;;;;;5068319;28;20127;-65
2023/10/06 04:38:30;;;;;;;9.07;3.92;;;10.30;99.90;;;;;;5067309;28;20040;-64
2023/10/06 04:40:56;;;;;;;11.48;3.78;;;10.40;99.90;;;;;;5069912;28;20031;-63
2023/10/06 04:43:23;;;;;;;12.98;4.32;;;10.40;99.90;;;;;;5067798;28;20045;-63
2023/10/06 04:45:50;;;;;;;13.90;3.80;;;10.40;99.90;;;;;;5070245;28;20048;-64
2023/10/06 04:48:18;;;;;;;7.57;3.92;;;10.40;99.90;;;;;;5067973;28;20384;-69
2023/10/06 04:50:45;;;;;;;11.68;3.80;;;10.50;99.90;;;;;;5069450;28;20052;-64
2023/10/06 04:53:11;;;;;;;11.25;4.20;;;10.50;99.90;;;;;;5067713;28;20575;-64
2023/10/06 04:55:40;;;;;;;8.18;2.92;;;10.50;99.90;;;;;;5069520;28;20044;-63
2023/10/06 04:58:09;;;;;;;9.55;4.07;;;10.50;99.90;;;;;;5067618;28;20044;-63
2023/10/06 05:00:34;;;;;;;9.25;3.42;;;10.60;99.90;;;;;;5070739;28;20099;-63
2023/10/06 05:03:03;;;;;;;;;;;10.60;99.90;;;;;;5088153;28;20066;-63
2023/10/06 05:05:33;;;;;;;9.50;3.17;;;10.50;99.90;;;;;;5088628;28;20322;-63
2023/10/06 05:08:00;;;;;;;10.75;3.53;;;10.50;99.90;;;;;;5085115;28;20118;-63
2023/10/06 05:10:25;;;;;;;8.32;3.45;;;10.50;99.90;;;;;;5088314;28;20044;-63
2023/10/06 05:12:51;;;;;;;;;;;10.60;99.90;;;;;;5087002;28;20093;-62
2023/10/06 05:15:23;;;;;;;11.73;3.15;;;10.50;99.90;;;;;;5089032;28;19930;-63
2023/10/06 05:17:55;;;;;;;8.90;3.80;;;10.50;99.90;;;;;;5084462;28;20029;-63
2023/10/06 05:20:29;;;;;;;11.63;4.63;;;10.50;99.90;;;;;;5087544;28;20043;-63
2023/10/06 05:23:07;;;;;;;13.63;4.25;;;10.50;99.90;;;;;;5085127;28;20745;-64
2023/10/06 05:25:36;;;;;;;11.00;4.25;;;10.50;99.90;;;;;;5088078;28;20043;-63
2023/10/06 05:28:03;;;;;;;16.58;4.80;;;10.50;99.90;;;;;;5084843;28;20403;-62
2023/10/06 05:30:30;;;;;;;10.60;3.53;;;10.50;99.90;;;;;;5085461;28;20111;-62
2023/10/06 05:32:59;;;;;;;15.13;4.10;;;10.50;99.90;;;;;;5067863;28;20033;-61
2023/10/06 05:35:38;;;;;;;8.65;3.60;;;10.50;99.90;;;;;;5068919;28;20044;-63
2023/10/06 05:38:08;;;;;;;12.10;3.53;;;10.50;99.90;;;;;;5067404;28;20040;-63
2023/10/06 05:40:34;;;;;;;9.07;3.40;;;10.50;99.90;;;;;;5061423;28;20041;-64
2023/10/06 05:43:00;;;;;;;14.40;3.10;;;10.50;99.90;;;;;;5063269;28;20044;-64
2023/10/06 05:45:29;;;;;;;13.45;3.30;;;10.50;99.90;;;;;;5062268;28;20107;-62
2023/10/06 05:47:58;;;;;;;9.02;3.40;;;10.50;99.90;;;;;;5061615;28;20033;-62
2023/10/06 05:50:28;;;;;;;8.77;2.90;;;10.50;99.90;;;;;;5062033;28;20127;-64
2023/10/06 05:52:57;;;;;;;8.13;2.97;;;10.60;99.90;;;;;;5062312;28;20044;-64
2023/10/06 05:55:27;;;;;;;6.53;2.85;;;10.60;99.90;;;;;;5063220;28;20040;-65
2023/10/06 05:57:55;;;;;;;9.70;2.75;;;10.60;99.90;;;;;;5063476;28;20048;-63
2023/10/06 06:00:27;;;;;;;11.63;2.75;;;10.60;99.90;;;;;;5061304;28;20060;-63
2023/10/06 06:03:10;;;;;;;11.70;3.28;;;10.70;99.90;;;;;;5065831;28;20036;-63
2023/10/06 06:05:38;;;;;;;6.93;2.72;;;10.70;99.90;;;;;;5059018;28;20029;-64
2023/10/06 06:08:10;;;;;;;;;;;10.80;99.90;;;;;;5065191;28;20442;-64
2023/10/06 06:10:36;;;;;;;8.77;2.90;;;10.80;99.90;;;;;;5066911;28;19924;-66
2023/10/06 06:13:05;;;;;;;11.88;2.80;;;10.90;99.90;;;;;;5064243;28;20120;-65
2023/10/06 06:15:31;;;;;;;11.57;2.70;;;11.00;99.90;;;;;;5063026;28;20044;-65
2023/10/06 06:17:58;;;;;;;6.40;2.38;;;11.00;99.90;;;;;;5060449;28;20135;-65
2023/10/06 06:20:24;;;;;;;5.88;2.38;;;11.10;99.90;;;;;;5065948;28;20178;-62
2023/10/06 06:22:53;;;;;;;9.18;2.38;;;11.10;99.90;;;;;;5062244;28;20070;-62
2023/10/06 06:25:21;;;;;;;5.35;2.42;;;11.20;99.90;;;;;;5066236;28;20028;-63
2023/10/06 06:27:47;;;;;;;6.25;2.67;;;11.30;99.90;;;;;;5063513;28;20113;-64
2023/10/06 06:30:12;;;;;;;;;;;11.40;99.90;;;;;;5066558;28;20040;-64
2023/10/06 06:32:38;;;;;;;11.80;2.95;;;11.40;99.90;;;;;;5064328;28;19999;-64
2023/10/06 06:35:07;;;;;;;;;;;11.50;99.90;;;;;;5066766;28;20078;-64
2023/10/06 06:37:33;;;;;;;6.43;2.42;;;11.50;99.90;;;;;;5065256;28;19920;-64
2023/10/06 06:39:59;;;;;;;13.95;2.78;;;11.60;99.90;;;;;;5065142;28;20040;-65
2023/10/06 06:42:24;;;;;;;;;;;11.70;99.90;;;;;;5060670;28;20909;-64
2023/10/06 06:44:51;;;;;;;10.45;2.20;;;11.70;99.90;;;;;;5066410;28;19916;-64
2023/10/06 06:47:17;;;;;;;20.35;3.40;;;11.80;99.90;;;;;;5066284;28;20047;-64
2023/10/06 06:49:44;;;;;;;;;;;11.80;99.90;;;;;;5064844;28;20040;-64
2023/10/06 06:52:10;;;;;;;8.75;2.20;;;11.90;99.90;;;;;;5067268;28;19974;-64
2023/10/06 06:54:38;;;;;;;8.52;2.50;;;12.10;99.90;;;;;;5067272;28;20064;-65
2023/10/06 06:57:04;;;;;;;14.10;3.10;;;12.10;99.90;;;;;;5066639;28;20044;-64
2023/10/06 06:59:31;;;;;;;;;;;12.10;99.90;;;;;;5064973;28;20060;-65
2023/10/06 07:01:59;;;;;;;10.20;2.42;;;12.10;99.90;;;;;;5060214;28;20443;-65
2023/10/06 07:04:28;;;;;;;7.78;2.90;;;12.20;99.90;;;;;;5064413;28;20045;-64
2023/10/06 07:06:53;;;;;;;9.45;2.63;;;12.30;99.90;;;;;;5066189;28;20514;-65
2023/10/06 07:09:19;;;;;;;;;;;12.40;99.90;;;;;;5064809;28;20040;-64
2023/10/06 07:11:44;;;;;;;11.48;3.55;;;12.30;99.90;;;;;;5063137;28;20607;-65
2023/10/06 07:14:10;;;;;;;;;;;12.40;99.90;;;;;;5062927;28;20082;-65
2023/10/06 07:16:36;;;;;;;9.90;2.22;;;12.40;99.90;;;;;;5065309;28;19920;-64
2023/10/06 07:19:02;;;;;;;;;;;12.40;99.90;;;;;;5062703;28;20044;-64
2023/10/06 07:21:28;;;;;;;11.32;3.90;;;12.40;99.90;;;;;;5066875;28;20455;-64
2023/10/06 07:23:56;;;;;;;8.02;2.33;;;12.40;99.90;;;;;;5062190;28;20037;-64
2023/10/06 07:26:23;;;;;;;5.93;2.33;;;12.50;99.90;;;;;;5061551;28;20517;-64
2023/10/06 07:28:52;;;;;;;9.38;2.33;;;12.60;99.90;;;;;;5065218;28;20519;-64
2023/10/06 07:31:19;;;;;;;7.38;2.58;;;12.60;99.90;;;;;;5060562;28;20343;-65
2023/10/06 07:33:47;;;;;;;9.88;2.70;;;12.60;99.90;;;;;;5089587;28;20575;-64
2023/10/06 07:36:14;;;;;;;15.65;2.97;;;12.60;99.90;;;;;;5091665;28;20039;-65
2023/10/06 07:38:41;;;;;;;9.30;2.92;;;12.60;99.90;;;;;;5089040;28;20046;-64
2023/10/06 07:41:07;;;;;;;8.77;2.60;;;12.70;99.90;;;;;;5091020;28;20048;-65
2023/10/06 07:43:33;;;;;;;9.70;2.65;;;12.70;99.90;;;;;;5089279;28;20073;-64
2023/10/06 07:46:07;;;;;;;;;;;12.80;99.90;;;;;;5090600;28;20040;-63
2023/10/06 07:48:36;;;;;;;12.90;2.45;;;12.80;99.90;;;;;;5088021;28;19930;-63
2023/10/06 07:51:08;;;;;;;7.80;2.85;;;12.90;99.90;;;;;;5091009;28;20059;-63
2023/10/06 07:53:36;;;;;;;12.88;2.78;;;13.00;99.90;;;;;;5089238;28;20480;-63
2023/10/06 07:56:08;;;;;;;13.55;2.70;;;13.10;99.90;;;;;;5091414;28;20051;-64
2023/10/06 07:58:41;;;;;;;7.53;2.40;;;13.10;99.90;;;;;;5088241;28;20040;-63
2023/10/06 08:01:10;;;;;;;14.95;3.08;;;13.20;99.90;;;;;;5083022;28;20072;-63
2023/10/06 08:03:41;;;;;;;7.93;2.42;;;13.20;99.90;;;;;;5067916;28;20048;-63
2023/10/06 08:06:08;;;;;;;8.88;2.63;;;13.20;99.90;;;;;;5060578;28;20048;-64
2023/10/06 08:08:38;;;;;;;12.10;2.28;;;13.30;99.90;;;;;;5068708;28;20055;-67
2023/10/06 08:11:08;;;;;;;8.15;2.28;;;13.40;99.90;;;;;;5068924;28;20044;-64
2023/10/06 08:13:35;;;;;;;12.70;2.63;;;13.40;99.90;;;;;;5069042;28;20162;-64
2023/10/06 08:16:06;;;;;;;11.07;2.70;;;13.40;99.90;;;;;;5069779;28;20059;-64
2023/10/06 08:18:32;;;;;;;9.30;2.20;;;13.40;99.90;;;;;;5066465;28;20106;-63
2023/10/06 08:21:00;;;;;;;8.75;2.55;;;13.40;99.90;;;;;;5065203;28;20137;-63
2023/10/06 08:23:31;;;;;;;7.70;2.40;;;13.40;99.90;;;;;;5065953;28;20040;-63
2023/10/06 08:25:58;;;;;;;5.00;2.42;;;13.50;99.90;;;;;;5066520;28;20515;-63
2023/10/06 08:28:24;;;;;;;6.85;2.33;;;13.50;99.90;;;;;;5068108;28;20076;-64
2023/10/06 08:30:50;;;;;;;12.48;2.65;;;13.60;99.90;;;;;;5065977;28;20636;-63
2023/10/06 08:33:15;;;;;;;;;;;13.60;99.90;;;;;;5067926;28;20028;-64
2023/10/06 08:35:41;;;;;;;9.90;2.30;;;13.70;99.90;;;;;;5070319;28;19920;-64
2023/10/06 08:38:10;;;;;;;7.05;1.75;;;13.80;99.90;;;;;;5070451;28;20556;-65
2023/10/06 08:40:44;;;;;;;15.57;2.53;;;13.90;99.90;;;;;;5070127;28;20049;-64
2023/10/06 08:43:13;;;;;;;4.70;2.20;;;14.00;99.90;;;;;;5070551;28;20040;-65
2023/10/06 08:45:41;;;;;;;9.90;2.38;;;14.10;99.90;;;;;;5070519;28;20037;-63
2023/10/06 08:48:10;;;;;;;9.98;2.28;;;14.10;99.90;;;;;;5073579;28;20616;-64
2023/10/06 08:50:37;;;;;;;9.77;1.92;;;14.10;99.90;;;;;;5071949;28;20052;-64
2023/10/06 08:53:05;;;;;;;5.13;1.80;;;14.10;99.90;;;;;;5073042;28;20056;-64
2023/10/06 08:55:32;;;;;;;9.30;2.13;;;14.20;99.90;;;;;;5072954;28;20045;-63
2023/10/06 08:57:58;;;;;;;6.50;2.20;;;14.20;99.90;;;;;;5067498;28;20479;-63
2023/10/06 09:00:25;;;;;;;10.38;2.55;;;14.30;99.90;;;;;;5077437;28;20596;-64
2023/10/06 09:02:54;;;;;;;5.20;2.10;;;14.40;99.90;;;;;;5064886;28;20029;-65
2023/10/06 09:05:20;;;;;;;6.53;2.33;;;14.40;99.90;;;;;;5074811;28;20044;-64
2023/10/06 09:08:09;;;;;;;12.70;2.20;;;14.30;99.90;;;;;;5067925;28;20044;-65
2023/10/06 09:10:43;;;;;;;7.28;2.13;;;14.30;99.90;;;;;;5082106;28;20056;-64
2023/10/06 09:13:11;;;;;;;8.07;2.38;;;14.20;99.90;;;;;;5066723;28;20496;-64
2023/10/06 09:15:39;;;;;;;7.30;2.08;;;14.20;99.90;;;;;;5069547;28;20047;-64
2023/10/06 09:18:18;;;;;;;8.90;2.60;;;14.30;99.90;;;;;;5066679;28;20044;-65
2023/10/06 09:20:45;;;;;;;10.52;2.50;;;14.50;99.90;;;;;;5069436;28;20113;-65
2023/10/06 09:23:11;;;;;;;9.30;2.53;;;14.60;99.90;;;;;;5066686;28;20111;-65
2023/10/06 09:25:47;;;;;;;6.47;2.55;;;14.70;99.90;;;;;;5069146;28;20381;-64
2023/10/06 09:28:17;;;;;;;4.75;2.03;;;14.90;99.90;;;;;;5065853;28;20041;-67
2023/10/06 09:30:50;;;;;;;8.77;2.30;;;15.10;99.90;;;;;;5065880;28;20098;-66
2023/10/06 09:33:17;;;;;;;12.43;2.78;;;15.20;99.90;;;;;;5067532;28;20040;-63
2023/10/06 09:35:43;;;;;;;5.65;1.73;;;15.30;99.90;;;;;;5069807;28;20040;-64
2023/10/06 09:38:13;;;;;;;6.18;2.13;;;15.40;99.90;;;;;;5067602;28;20115;-63
2023/10/06 09:40:43;;;;;;;8.05;2.20;;;15.40;99.90;;;;;;5074586;28;20403;-63
2023/10/06 09:43:13;;;;;;;6.47;2.45;;;15.40;99.90;;;;;;5066881;28;20032;-64
2023/10/06 09:45:42;;;;;;;5.28;2.22;;;15.40;99.90;;;;;;5072638;28;20046;-63
2023/10/06 09:48:15;;;;;;;8.55;2.05;;;15.40;99.90;;;;;;5062836;28;20094;-64
2023/10/06 09:50:46;;;;;;;5.88;2.08;;;15.50;99.90;;;;;;5072021;28;20068;-63
2023/10/06 09:53:12;;;;;;;8.65;2.63;;;15.60;99.90;;;;;;5069914;28;20113;-64
2023/10/06 09:55:41;;;;;;;7.20;2.33;;;15.50;99.90;;;;;;5068827;28;20032;-62
2023/10/06 09:58:08;;;;;;;9.25;2.40;;;15.60;99.90;;;;;;5065938;28;20416;-64
2023/10/06 10:00:39;;;;;;;9.30;2.20;;;15.70;99.90;;;;;;5070838;28;20121;-64
2023/10/06 10:03:06;;;;;;;7.97;2.22;;;15.70;99.90;;;;;;5069138;28;20040;-63
2023/10/06 10:05:32;;;;;;;7.47;2.25;;;15.60;99.90;;;;;;5072300;28;20114;-65
2023/10/06 10:07:58;;;;;;;8.60;2.10;;;15.50;99.90;;;;;;5065903;28;20047;-64
2023/10/06 10:10:25;;;;;;;;;;;15.50;99.90;;;;;;5072884;28;20043;-65
2023/10/06 10:13:12;;;;;;;4.63;1.65;;;15.50;99.90;;;;;;5065173;28;19995;-65
2023/10/06 10:16:03;;;;;;;10.52;2.22;;;15.50;99.90;;;;;;5066626;28;20044;-66
2023/10/06 10:18:38;;;;;;;12.48;2.35;;;15.70;99.90;;;;;;5065677;28;20052;-66
2023/10/06 10:21:08;;;;;;;5.25;2.00;;;15.60;99.90;;;;;;5069452;28;20613;-63
2023/10/06 10:23:37;;;;;;;7.47;1.98;;;15.60;99.90;;;;;;5065815;28;20064;-64
2023/10/06 10:26:22;;;;;;;6.53;2.00;;;15.80;99.90;;;;;;5071385;28;20040;-64
2023/10/06 10:29:12;;;;;;;7.03;1.92;;;15.90;99.90;;;;;;5069459;28;20033;-64
2023/10/06 10:31:51;;;;;;;6.85;2.15;;;15.90;99.90;;;;;;5070461;28;21370;-64
2023/10/06 10:34:21;;;;;;;5.43;1.75;;;15.90;99.90;;;;;;5067924;28;20471;-64
2023/10/06 10:36:48;;;;;;;5.32;2.30;;;16.00;99.90;;;;;;5067504;28;20040;-64
2023/10/06 10:39:18;;;;;;;5.93;1.70;;;16.10;99.90;;;;;;5064237;28;20632;-64
2023/10/06 10:41:45;;;;;;;5.43;2.25;;;16.10;99.90;;;;;;5064228;28;20127;-64
2023/10/06 10:44:12;;;;;;;7.28;1.58;;;16.10;99.90;;;;;;5063017;28;20053;-65
2023/10/06 10:46:41;;;;;;;4.53;1.92;;;16.20;99.90;;;;;;5065705;28;20070;-64
2023/10/06 10:49:09;;;;;;;8.55;2.53;;;16.30;99.90;;;;;;5066676;28;20193;-64
2023/10/06 10:52:05;;;;;;;6.20;2.50;;;16.30;99.90;;;;;;5067563;28;20062;-64
2023/10/06 10:54:37;;;;;;;5.30;2.15;;;16.30;99.90;;;;;;5063546;28;20103;-64
2023/10/06 10:57:13;;;;;;;6.50;1.70;;;16.40;99.90;;;;;;5063813;28;20033;-64
2023/10/06 11:02:41;;;;;;;8.18;2.63;;;16.60;99.90;;;;;;5063926;28;20041;-64
2023/10/06 11:05:07;;;;;;;5.90;1.95;;;16.60;99.90;;;;;;5068026;28;20055;-64
2023/10/06 11:07:35;;;;;;;4.38;1.77;;;16.70;99.90;;;;;;5065175;28;20705;-64
2023/10/06 11:10:02;;;;;;;5.70;2.38;;;16.70;99.90;;;;;;5068247;28;20072;-64
2023/10/06 11:12:30;;;;;;;5.63;1.90;;;16.90;99.90;;;;;;5070659;28;20055;-64
2023/10/06 11:15:16;;;;;;;5.07;1.98;;;16.90;99.90;;;;;;5068448;28;20044;-64
2023/10/06 11:17:43;;;;;;;8.15;2.22;;;17.00;99.90;;;;;;5065572;28;20044;-64
2023/10/06 11:20:13;;;;;;;4.28;2.00;;;17.00;99.90;;;;;;5067174;28;20032;-64
2023/10/06 11:22:40;;;;;;;9.27;1.80;;;17.10;99.90;;;;;;5065460;28;20029;-65
2023/10/06 11:25:08;;;;;;;6.97;2.00;;;17.20;99.90;;;;;;5069915;28;20079;-64
2023/10/06 11:27:37;;;;;;;8.07;1.90;;;17.30;99.90;;;;;;5067250;28;20153;-64
2023/10/06 11:30:08;;;;;;;5.03;2.20;;;17.40;99.80;;;;;;5067847;28;20067;-64
2023/10/06 11:32:33;;;;;;;7.75;2.05;;;17.50;99.50;;;;;;5066914;28;20082;-65
2023/10/06 11:34:59;;;;;;;;;;;17.50;99.90;;;;;;5068498;28;20065;-64
2023/10/06 11:37:28;;;;;;;9.02;1.90;;;17.50;99.90;;;;;;5066601;28;20944;-65
2023/10/06 11:39:57;;;;;;;5.15;2.05;;;17.50;98.90;;;;;;5067986;28;20511;-64
2023/10/06 11:42:25;;;;;;;3.55;1.67;;;17.50;99.00;;;;;;5064846;28;20052;-65
2023/10/06 11:44:52;;;;;;;6.68;2.03;;;17.60;98.80;;;;;;5067121;28;20078;-64
2023/10/06 11:47:27;;;;;;;5.68;1.67;;;17.40;98.50;;;;;;5068289;28;20068;-65
2023/10/06 11:50:01;;;;;;;5.43;2.15;;;17.50;99.00;;;;;;5064503;28;20104;-64
2023/10/06 11:52:27;;;;;;;4.95;2.30;;;17.50;98.80;;;;;;5066202;28;20051;-64
2023/10/06 11:54:54;;;;;;;4.63;2.03;;;17.50;98.60;;;;;;5065948;28;20048;-65
2023/10/06 11:57:51;;;;;;;4.65;1.85;;;17.50;98.90;;;;;;5066037;28;20484;-64
2023/10/06 12:00:18;;;;;;;7.35;2.00;;;17.40;99.00;;;;;;5064562;28;20044;-64
2023/10/06 12:02:51;;;;;;;7.38;2.47;;;17.40;98.30;;;;;;5095227;28;20048;-64
2023/10/06 12:05:22;;;;;;;5.43;2.10;;;17.40;98.60;;;;;;5091760;28;20031;-64
2023/10/06 12:07:51;;;;;;;4.93;1.70;;;17.40;99.00;;;;;;5097516;28;20193;-63
2023/10/06 12:10:19;;;;;;;7.18;1.80;;;17.40;99.20;;;;;;5094709;28;20826;-65
2023/10/06 12:12:46;;;;;;;4.15;2.03;;;17.60;99.30;;;;;;5094894;28;20058;-64
2023/10/06 12:15:15;;;;;;;6.07;2.30;;;17.70;99.10;;;;;;5102136;28;20165;-64
2023/10/06 12:17:42;;;;;;;6.53;2.10;;;17.80;97.90;;;;;;5098122;28;20035;-65
2023/10/06 12:20:13;;;;;;;4.35;1.83;;;17.80;97.80;;;;;;5099168;28;20112;-64
2023/10/06 12:22:43;;;;;;;5.00;2.20;;;17.70;97.80;;;;;;5103241;28;20860;-64
2023/10/06 12:25:11;;;;;;;4.40;1.90;;;17.60;97.10;;;;;;5097181;28;20113;-64
2023/10/06 12:27:43;;;;;;;5.45;2.10;;;17.40;96.60;;;;;;5093951;28;20055;-63
2023/10/06 12:30:13;;;;;;;5.38;1.90;;;17.40;96.90;;;;;;5099880;28;20035;-65
2023/10/06 12:32:39;;;;;;;6.65;2.05;;;17.30;97.20;;;;;;5067995;28;20040;-64
2023/10/06 12:35:06;;;;;;;5.45;2.05;;;17.40;97.00;;;;;;5067601;28;20044;-63
2023/10/06 12:37:40;;;;;;;4.78;1.58;;;17.50;97.30;;;;;;5067794;28;20040;-65
2023/10/06 12:40:11;;;;;;;6.00;2.10;;;17.50;95.60;;;;;;5069752;28;20133;-64
2023/10/06 12:42:38;;;;;;;6.95;1.92;;;17.40;95.70;;;;;;5067535;28;20126;-64
2023/10/06 12:45:09;;;;;;;5.35;2.03;;;17.40;96.40;;;;;;5070429;28;20044;-65
2023/10/06 12:47:38;;;;;;;3.45;1.70;;;17.50;98.00;;;;;;5065823;28;20113;-64
2023/10/06 12:50:08;;;;;;;5.80;1.70;;;17.50;97.30;;;;;;5069981;28;20045;-64
2023/10/06 12:52:36;;;;;;;4.30;2.05;;;17.60;97.40;;;;;;5067175;28;20068;-64
2023/10/06 12:55:10;;;;;;;4.07;1.77;;;17.70;97.20;;;;;;5067267;28;20464;-65
2023/10/06 12:57:40;;;;;;;5.80;2.17;;;17.70;97.30;;;;;;5068534;28;20045;-64
2023/10/06 13:00:07;;;;;;;7.57;1.95;;;17.60;97.90;;;;;;5070181;28;20084;-64
2023/10/06 13:02:34;;;;;;;8.25;2.53;;;17.60;98.20;;;;;;5083516;28;20040;-65
2023/10/06 13:05:08;;;;;;;5.68;2.05;;;17.70;97.50;;;;;;5090080;28;20118;-65
2023/10/06 13:07:37;;;;;;;5.75;1.70;;;17.70;98.60;;;;;;5087523;28;20874;-64
2023/10/06 13:10:06;;;;;;;9.18;1.60;;;17.70;97.50;;;;;;5085418;28;20383;-63
2023/10/06 13:12:33;;;;;;;6.25;2.20;;;17.70;97.60;;;;;;5083379;28;20044;-62
2023/10/06 13:15:01;;;;;;;6.20;2.05;;;17.50;97.00;;;;;;5087039;28;20039;-63
2023/10/06 13:17:28;;;;;;;11.75;2.20;;;17.50;97.70;;;;;;5067558;28;20044;-61
2023/10/06 13:19:55;;;;;;;4.30;1.88;;;17.50;98.00;;;;;;5089179;28;20445;-63